Time;durP1;ratioP1;P1;durP2;ratioP2;P2;SDS_P1;SDS_P2;PMS_P1;PMS_P2;Temp;Humidity;BMP_temperature;BMP_pressure;BME280_temperature;BME280_humidity;BME280_pressure;Samples;Min_cycle;Max_cycle;Signal;HPM_P1;HPM_P2
2023/10/19 00:00:36;;;;;;;18.38;8.02;;;;;;;;;;5080942;28;20062;-71
2023/10/19 00:03:06;;;;;;;16.67;7.93;;;;;;;;;;5063034;28;20031;-71
2023/10/19 00:05:35;;;;;;;12.70;7.13;;;;;;;;;;5080942;28;20028;-71
2023/10/19 00:08:05;;;;;;;18.92;6.88;;;;;;;;;;5080739;28;20028;-72
2023/10/19 00:10:35;;;;;;;13.25;7.43;;;;;;;;;;5080931;28;20024;-72
2023/10/19 00:13:08;;;;;;;18.90;8.85;;;;;;;;;;5080684;28;20070;-72
2023/10/19 00:15:39;;;;;;;14.65;7.78;;;;;;;;;;5080982;28;20028;-72
2023/10/19 00:23:28;;;;;;;11.70;7.00;;;;;;;;;;5080464;28;20108;-72
2023/10/19 00:25:54;;;;;;;12.80;7.65;;;;;;;;;;5080346;28;20304;-71
2023/10/19 00:28:22;;;;;;;12.27;7.60;;;;;;;;;;5062250;28;20240;-72
2023/10/19 00:30:49;;;;;;;16.38;6.85;;;;;;;;;;5080240;28;20039;-72
2023/10/19 00:33:18;;;;;;;14.98;7.60;;;;;;;;;;5080247;28;20016;-72
2023/10/19 00:41:21;;;;;;;17.20;8.10;;;;;;;;;;5018065;28;20096;-71
2023/10/19 00:43:49;;;;;;;14.25;7.68;;;;;;;;;;5049817;28;20324;-72
2023/10/19 00:46:20;;;;;;;12.95;7.78;;;;;;;;;;5079984;28;20029;-72
2023/10/19 00:48:46;;;;;;;16.15;7.80;;;;;;;;;;5080012;28;20099;-71
2023/10/19 00:51:27;;;;;;;14.27;8.88;;;;;;;;;;5079903;28;20033;-72
2023/10/19 00:53:56;;;;;;;17.13;8.07;;;;;;;;;;5079895;28;20024;-72
2023/10/19 00:56:24;;;;;;;17.45;8.48;;;9.70;67.00;;;;;;5061749;28;20058;-72
2023/10/19 00:58:58;;;;;;;15.25;8.60;;;;;;;;;;5079995;28;20084;-73
2023/10/19 01:01:28;;;;;;;16.42;8.32;;;;;;;;;;5078774;28;20099;-72
2023/10/19 01:03:56;;;;;;;19.00;8.80;;;;;;;;;;5079618;28;20032;-72
2023/10/19 01:06:23;;;;;;;17.05;8.70;;;;;;;;;;5079988;28;20033;-73
2023/10/19 01:08:51;;;;;;;13.98;7.97;;;;;;;;;;5079560;28;20043;-73
2023/10/19 01:11:20;;;;;;;12.93;8.77;;;;;;;;;;5079885;28;20052;-72
2023/10/19 01:13:47;;;;;;;18.75;9.50;;;9.80;68.10;;;;;;5079771;28;20024;-73
2023/10/19 01:16:20;;;;;;;15.98;8.85;;;;;;;;;;5079741;28;20025;-73
2023/10/19 01:18:55;;;;;;;22.35;9.55;;;9.70;68.80;;;;;;5079582;28;20087;-71
2023/10/19 01:21:37;;;;;;;19.23;10.38;;;;;;;;;;5079721;28;20024;-72
2023/10/19 01:24:16;;;;;;;18.08;9.18;;;;;;;;;;5061494;28;20024;-73
2023/10/19 01:26:42;;;;;;;;;;;;;;;;;;5062055;28;20366;-73
2023/10/19 01:29:17;;;;;;;20.27;10.63;;;;;;;;;;5079555;28;19955;-73
2023/10/19 01:31:56;;;;;;;18.60;11.75;;;;;;;;;;5079538;28;20066;-73
2023/10/19 01:34:22;;;;;;;18.70;10.55;;;;;;;;;;5079366;28;20032;-72
2023/10/19 01:36:50;;;;;;;24.55;12.02;;;;;;;;;;5079429;28;20032;-73
2023/10/19 01:39:18;;;;;;;20.50;12.63;;;;;;;;;;5079817;28;20020;-73
2023/10/19 01:41:45;;;;;;;22.30;13.07;;;;;;;;;;5079911;28;20129;-71
2023/10/19 01:44:15;;;;;;;23.80;12.23;;;;;;;;;;5079621;28;20312;-71
2023/10/19 01:46:43;;;;;;;19.65;11.02;;;;;;;;;;5079669;28;20178;-72
2023/10/19 01:49:10;;;;;;;20.47;12.93;;;;;;;;;;5079545;28;20032;-71
2023/10/19 01:51:39;;;;;;;20.00;12.63;;;;;;;;;;5079533;28;20009;-71
2023/10/19 01:54:08;;;;;;;27.35;12.80;;;9.20;75.80;;;;;;5079521;28;20025;-71
2023/10/19 01:56:38;;;;;;;27.15;13.23;;;;;;;;;;5079488;28;20091;-71
2023/10/19 01:59:05;;;;;;;22.13;12.80;;;;;;;;;;5061414;28;20236;-71
2023/10/19 02:01:32;;;;;;;23.08;11.73;;;;;;;;;;5079428;28;20020;-71
2023/10/19 02:04:05;;;;;;;25.27;12.20;;;;;;;;;;5079493;28;20036;-71
2023/10/19 02:06:40;;;;;;;19.27;12.43;;;9.10;77.40;;;;;;5078824;28;20021;-71
2023/10/19 02:11:56;;;;;;;19.45;12.48;;;;;;;;;;5079633;28;20274;-70
2023/10/19 02:14:25;;;;;;;21.75;13.43;;;;;;;;;;5082671;28;20426;-71
2023/10/19 02:17:03;;;;;;;20.75;12.27;;;;;;;;;;5082958;28;20044;-71
2023/10/19 02:19:30;;;;;;;22.98;12.95;;;;;;;;;;5082762;28;20060;-71
2023/10/19 02:21:58;;;;;;;19.95;12.25;;;;;;;;;;5082589;28;20016;-71
2023/10/19 02:24:25;;;;;;;29.77;13.97;;;;;;;;;;5082641;28;20024;-71
2023/10/19 02:26:52;;;;;;;23.80;13.73;;;;;;;;;;5074595;28;20066;-70
2023/10/19 02:29:18;;;;;;;22.92;13.73;;;;;;;;;;5062681;28;20108;-71
2023/10/19 02:31:45;;;;;;;30.70;15.10;;;;;;;;;;5062412;28;20332;-71
2023/10/19 02:34:14;;;;;;;25.15;15.00;;;;;;;;;;5062382;28;20056;-70
2023/10/19 02:36:41;;;;;;;27.33;14.07;;;;;;;;;;5064418;28;20061;-72
2023/10/19 02:39:08;;;;;;;32.25;14.82;;;;;;;;;;5064111;28;20081;-71
2023/10/19 02:41:38;;;;;;;29.27;15.35;;;;;;;;;;5082398;28;20062;-72
2023/10/19 02:44:09;;;;;;;28.00;15.48;;;;;;;;;;5082672;28;20274;-71
2023/10/19 02:46:38;;;;;;;26.15;16.52;;;;;;;;;;5082480;28;20044;-71
2023/10/19 02:49:11;;;;;;;;;;;;;;;;;;5082733;28;20039;-72
2023/10/19 02:51:38;;;;;;;28.80;15.70;;;;;;;;;;5082359;28;20184;-72
2023/10/19 02:54:06;;;;;;;25.00;15.82;;;;;;;;;;5082247;28;20041;-71
2023/10/19 02:56:33;;;;;;;28.92;17.52;;;;;;;;;;5082239;28;20021;-71
2023/10/19 02:59:03;;;;;;;33.15;18.35;;;;;;;;;;5082130;28;20020;-71
2023/10/19 03:01:31;;;;;;;31.42;17.88;;;;;;;;;;5082411;28;20051;-71
2023/10/19 03:03:59;;;;;;;31.45;18.33;;;;;;;;;;5082274;28;20024;-71
2023/10/19 03:06:26;;;;;;;35.73;17.70;;;;;;;;;;5082240;28;20336;-70
2023/10/19 03:08:58;;;;;;;35.25;18.02;;;;;;;;;;5082043;28;20040;-71
2023/10/19 03:11:27;;;;;;;30.63;17.13;;;8.30;93.60;;;;;;5081573;28;20595;-71
2023/10/19 03:13:53;;;;;;;33.63;19.58;;;;;;;;;;5063840;28;20024;-71
2023/10/19 03:16:20;;;;;;;35.85;18.25;;;;;;;;;;5081873;28;20047;-74
2023/10/19 03:18:46;;;;;;;38.70;19.17;;;;;;;;;;5081578;28;20052;-75
2023/10/19 03:21:12;;;;;;;33.08;18.55;;;;;;;;;;5081674;28;20086;-75
2023/10/19 03:23:40;;;;;;;31.63;19.95;;;;;;;;;;5081770;28;20335;-75
2023/10/19 03:28:55;;;;;;;33.72;18.35;;;;;;;;;;5081606;28;20220;-75
2023/10/19 03:31:25;;;;;;;31.95;18.08;;;;;;;;;;5081567;28;20025;-75
2023/10/19 03:33:54;;;;;;;32.40;18.52;;;;;;;;;;5063552;28;20543;-74
2023/10/19 03:36:24;;;;;;;32.42;19.00;;;;;;;;;;5081587;28;20027;-75
2023/10/19 03:38:51;;;;;;;33.28;19.17;;;;;;;;;;5081632;28;20032;-74
2023/10/19 03:41:21;;;;;;;34.83;19.58;;;;;;;;;;5081245;28;20036;-74
2023/10/19 03:43:51;;;;;;;36.80;20.00;;;;;;;;;;5080819;28;20570;-74
2023/10/19 03:46:37;;;;;;;33.05;20.25;;;;;;;;;;5081404;28;20020;-74
2023/10/19 03:49:13;;;;;;;37.00;19.85;;;;;;;;;;5081034;28;20056;-74
2023/10/19 03:51:40;;;;;;;33.80;19.17;;;;;;;;;;5063197;28;20025;-74
2023/10/19 03:54:23;;;;;;;35.47;21.27;;;;;;;;;;5081004;28;20025;-74
2023/10/19 03:56:52;;;;;;;34.40;20.42;;;;;;;;;;5081150;28;20031;-74
2023/10/19 03:59:20;;;;;;;36.08;20.20;;;;;;;;;;5080894;28;20017;-74
2023/10/19 04:01:46;;;;;;;40.03;21.55;;;;;;;;;;5080884;28;20020;-74
2023/10/19 04:04:13;;;;;;;44.47;22.27;;;;;;;;;;5081049;28;20025;-74
2023/10/19 04:06:40;;;;;;;38.53;22.13;;;;;;;;;;5080825;28;20020;-73
2023/10/19 04:09:06;;;;;;;35.88;20.83;;;;;;;;;;5080839;28;20048;-73
2023/10/19 04:11:47;;;;;;;34.35;19.90;;;;;;;;;;5080157;28;20048;-73
2023/10/19 04:14:15;;;;;;;37.10;21.35;;;;;;;;;;5079365;28;20024;-74
2023/10/19 04:16:43;;;;;;;35.55;21.50;;;;;;;;;;5080857;28;20043;-73
2023/10/19 04:19:12;;;;;;;31.98;20.65;;;;;;;;;;5080459;28;20121;-72
2023/10/19 04:21:43;;;;;;;40.88;22.48;;;;;;;;;;5080837;28;20114;-70
2023/10/19 04:24:10;;;;;;;38.05;22.02;;;;;;;;;;5080379;28;20329;-70
2023/10/19 04:26:37;;;;;;;41.78;22.58;;;;;;;;;;5080329;28;20036;-70
2023/10/19 04:29:17;;;;;;;40.28;22.15;;;;;;;;;;5080199;28;20067;-70
2023/10/19 04:31:54;;;;;;;40.22;22.30;;;;;;;;;;5080230;28;20020;-70
2023/10/19 04:34:20;;;;;;;45.13;23.60;;;;;;;;;;5080212;28;20368;-71
2023/10/19 04:36:47;;;;;;;45.28;23.13;;;;;;;;;;5079347;28;20047;-71
2023/10/19 04:39:13;;;;;;;38.78;22.23;;;;;;;;;;5080203;28;20039;-70
2023/10/19 04:41:44;;;;;;;43.05;23.33;;;;;;;;;;5080433;28;20028;-71
2023/10/19 04:44:10;;;;;;;42.47;22.98;;;;;;;;;;5080207;28;20028;-70
2023/10/19 04:46:36;;;;;;;42.83;23.55;;;;;;;;;;5080175;28;20052;-70
2023/10/19 04:49:03;;;;;;;48.55;22.33;;;;;;;;;;5080022;28;20089;-72
2023/10/19 04:51:29;;;;;;;44.47;23.42;;;;;;;;;;5080145;28;20040;-73
2023/10/19 04:53:55;;;;;;;42.63;22.90;;;;;;;;;;5061638;28;20059;-73
2023/10/19 04:56:22;;;;;;;37.10;21.85;;;8.30;94.90;;;;;;5079823;28;20024;-74
2023/10/19 04:58:48;;;;;;;37.90;20.77;;;;;;;;;;5061939;28;20020;-73
2023/10/19 05:01:14;;;;;;;38.72;22.02;;;;;;;;;;5079773;28;20028;-73
2023/10/19 05:03:41;;;;;;;41.58;22.67;;;;;;;;;;5079734;28;20088;-73
2023/10/19 05:06:07;;;;;;;44.13;21.63;;;;;;;;;;5078935;28;20631;-74
2023/10/19 05:08:33;;;;;;;40.80;21.20;;;;;;;;;;5079452;28;20028;-74
2023/10/19 05:11:00;;;;;;;37.90;20.42;;;;;;;;;;5079689;28;20047;-73
2023/10/19 05:13:27;;;;;;;42.05;21.98;;;;;;;;;;5079399;28;20029;-73
2023/10/19 05:15:54;;;;;;;38.75;20.67;;;;;;;;;;5079225;28;20312;-73
2023/10/19 05:18:20;;;;;;;36.80;19.48;;;;;;;;;;5079477;28;20056;-71
2023/10/19 05:20:46;;;;;;;33.85;18.60;;;;;;;;;;5080116;28;20024;-70
2023/10/19 05:23:16;;;;;;;36.30;19.85;;;;;;;;;;5079904;28;20020;-73
2023/10/19 05:25:42;;;;;;;;;;;;;;;;;;5080132;28;20087;-72
2023/10/19 05:28:08;;;;;;;30.90;17.15;;;;;;;;;;5079518;28;20034;-74
2023/10/19 05:30:34;;;;;;;32.72;18.30;;;;;;;;;;5061360;28;20032;-76
2023/10/19 05:33:04;;;;;;;29.73;17.63;;;;;;;;;;5079463;28;20280;-75
2023/10/19 05:35:31;;;;;;;26.45;15.48;;;;;;;;;;5079376;28;20043;-75
2023/10/19 05:37:58;;;;;;;25.45;15.15;;;;;;;;;;5079615;28;20028;-76
2023/10/19 05:40:29;;;;;;;25.80;14.82;;;;;;;;;;5061378;28;20043;-75
2023/10/19 05:42:55;;;;;;;25.65;13.68;;;;;;;;;;5079777;28;20028;-75
2023/10/19 05:45:21;;;;;;;28.27;15.23;;;;;;;;;;5079494;28;20308;-74
2023/10/19 05:47:48;;;;;;;25.98;15.75;;;;;;;;;;5080514;28;20063;-76
2023/10/19 05:50:14;;;;;;;26.70;12.98;;;;;;;;;;5083255;28;20585;-77
2023/10/19 05:52:44;;;;;;;25.13;14.30;;;;;;;;;;5083289;28;20048;-77
2023/10/19 05:55:13;;;;;;;27.42;16.02;;;;;;;;;;5082710;28;20043;-75
2023/10/19 05:57:42;;;;;;;28.38;16.65;;;;;;;;;;5076058;28;20028;-75
2023/10/19 06:00:12;;;;;;;;;;;9.20;92.80;;;;;;5067050;28;20021;-75
2023/10/19 06:02:38;;;;;;;26.17;14.70;;;;;;;;;;5063100;28;19909;-78
2023/10/19 06:05:05;;;;;;;24.65;14.48;;;;;;;;;;5062797;28;20218;-77
2023/10/19 06:07:32;;;;;;;24.10;13.35;;;;;;;;;;5070435;28;20032;-76
2023/10/19 06:10:00;;;;;;;27.58;15.43;;;;;;;;;;5059118;28;20057;-77
2023/10/19 06:12:26;;;;;;;23.77;13.90;;;;;;;;;;5063253;28;20075;-76
2023/10/19 06:14:52;;;;;;;22.75;14.15;;;;;;;;;;5077246;28;20261;-76
2023/10/19 06:17:19;;;;;;;26.42;14.38;;;;;;;;;;5082635;28;20087;-76
2023/10/19 06:19:45;;;;;;;25.35;14.82;;;;;;;;;;5083112;28;20044;-78
2023/10/19 06:22:12;;;;;;;28.67;14.52;;;;;;;;;;5082900;28;20056;-75
2023/10/19 06:24:38;;;;;;;25.92;15.00;;;;;;;;;;5083047;28;20035;-75
2023/10/19 06:27:04;;;;;;;26.23;14.85;;;;;;;;;;5082787;28;20042;-76
2023/10/19 06:29:30;;;;;;;27.70;15.82;;;;;;;;;;5082206;28;20070;-76
2023/10/19 06:31:56;;;;;;;25.52;14.40;;;;;;;;;;5082368;28;20040;-76
2023/10/19 06:34:22;;;;;;;24.83;14.38;;;;;;;;;;5076889;28;20727;-72
2023/10/19 06:36:50;;;;;;;26.10;14.77;;;;;;;;;;5066634;28;20040;-74
2023/10/19 06:39:17;;;;;;;26.80;15.63;;;;;;;;;;5064293;28;20063;-70
2023/10/19 06:41:43;;;;;;;26.15;13.80;;;;;;;;;;5064235;28;20024;-70
2023/10/19 06:44:10;;;;;;;27.10;14.98;;;;;;;;;;5082018;28;20016;-71
2023/10/19 06:46:39;;;;;;;22.45;13.50;;;;;;;;;;5066777;28;20028;-70
2023/10/19 06:49:05;;;;;;;23.53;13.67;;;;;;;;;;5082079;28;20112;-70
2023/10/19 06:51:32;;;;;;;24.17;13.73;;;;;;;;;;5078491;28;20035;-71
2023/10/19 06:53:58;;;;;;;26.00;15.07;;;;;;;;;;5065708;28;20028;-73
2023/10/19 06:56:24;;;;;;;25.65;14.52;;;;;;;;;;5081538;28;20078;-77
2023/10/19 06:58:50;;;;;;;28.17;16.15;;;;;;;;;;5077781;28;20025;-72
2023/10/19 07:01:17;;;;;;;30.02;15.60;;;;;;;;;;5073937;28;20088;-74
2023/10/19 07:03:44;;;;;;;30.05;14.90;;;;;;;;;;5072084;28;20309;-74
2023/10/19 07:06:13;;;;;;;28.20;14.45;;;;;;;;;;5082105;28;20078;-71
2023/10/19 07:08:40;;;;;;;29.50;16.02;;;;;;;;;;5068883;28;20037;-77
2023/10/19 07:11:07;;;;;;;29.20;15.40;;;;;;;;;;5061232;28;20032;-84
2023/10/19 07:13:33;;;;;;;29.90;16.33;;;;;;;;;;5081707;28;20028;-79
2023/10/19 07:16:00;;;;;;;25.88;14.55;;;;;;;;;;5087499;28;20048;-71
2023/10/19 07:18:26;;;;;;;21.75;13.68;;;;;;;;;;5091865;28;20057;-71
2023/10/19 07:21:00;;;;;;;27.77;13.98;;;;;;;;;;5080968;28;20127;-73
2023/10/19 07:23:26;;;;;;;29.75;15.18;;;;;;;;;;5081871;28;20044;-73
2023/10/19 07:25:56;;;;;;;27.80;15.65;;;9.90;92.30;;;;;;5063761;28;20024;-74
2023/10/19 07:28:26;;;;;;;30.02;14.80;;;9.80;92.10;;;;;;5081845;28;20408;-72
2023/10/19 07:30:52;;;;;;;26.05;14.70;;;;;;;;;;5081299;28;20020;-74
2023/10/19 07:33:19;;;;;;;23.77;14.68;;;;;;;;;;5081955;28;20044;-73
2023/10/19 07:35:54;;;;;;;31.08;16.45;;;;;;;;;;5082123;28;20028;-74
2023/10/19 07:38:21;;;;;;;29.80;16.45;;;;;;;;;;5083789;28;20015;-73
2023/10/19 07:40:47;;;;;;;27.98;15.65;;;;;;;;;;5076443;28;20231;-73
2023/10/19 07:43:13;;;;;;;27.27;14.50;;;;;;;;;;5081986;28;20020;-73
2023/10/19 07:45:40;;;;;;;29.35;16.98;;;;;;;;;;5081048;28;20028;-73
2023/10/19 07:48:06;;;;;;;28.15;15.93;;;;;;;;;;5081856;28;20031;-73
2023/10/19 07:50:35;;;;;;;27.10;16.30;;;;;;;;;;5081079;28;20044;-74
2023/10/19 07:53:02;;;;;;;29.02;16.23;;;;;;;;;;5080709;28;20024;-73
2023/10/19 07:55:28;;;;;;;29.80;15.80;;;;;;;;;;5058919;28;20025;-74
2023/10/19 07:57:54;;;;;;;25.95;15.85;;;;;;;;;;5070609;28;20032;-73
2023/10/19 08:00:21;;;;;;;25.77;15.45;;;;;;;;;;5079634;28;20210;-73
2023/10/19 08:02:47;;;;;;;25.30;15.82;;;;;;;;;;5080045;28;20024;-74
2023/10/19 08:05:14;;;;;;;30.13;15.88;;;;;;;;;;5080574;28;20331;-79
2023/10/19 08:07:42;;;;;;;27.45;15.52;;;;;;;;;;5080815;28;20054;-76
2023/10/19 08:10:10;;;;;;;29.55;15.23;;;;;;;;;;5058988;28;20040;-77
2023/10/19 08:12:36;;;;;;;27.02;15.00;;;;;;;;;;5087041;28;20035;-77
2023/10/19 08:15:03;;;;;;;27.05;14.82;;;;;;;;;;5094067;28;20062;-76
2023/10/19 08:17:30;;;;;;;23.67;15.45;;;;;;;;;;5082294;28;20593;-77
2023/10/19 08:19:57;;;;;;;26.00;14.27;;;;;;;;;;5100707;28;20055;-75
2023/10/19 15:57:17;;;;;;;25.60;10.70;;;21.40;99.90;;;;;;5116607;27;20462;-61
2023/10/19 15:59:44;;;;;;;29.90;9.48;;;21.20;70.40;;;;;;5101886;28;20056;-57
2023/10/19 16:02:10;;;;;;;35.22;10.15;;;22.80;72.30;;;;;;5097235;28;20020;-57
2023/10/19 16:04:46;;;;;;;25.08;9.98;;;20.90;72.00;;;;;;5097351;28;20028;-57
2023/10/19 16:07:14;;;;;;;35.35;10.98;;;;;;;;;;5097280;28;20039;-56
2023/10/19 16:09:41;;;;;;;33.55;11.43;;;22.20;98.60;;;;;;5097071;28;20023;-64
2023/10/19 16:12:08;;;;;;;28.48;9.98;;;;;;;;;;5114679;28;20036;-64
2023/10/19 16:29:22;;;;;;;27.40;21.25;;;16.60;76.90;;;;;;5077121;28;20427;-70
2023/10/19 16:31:48;;;;;;;41.17;26.10;;;;;;;;;;5077337;28;20020;-70
2023/10/19 16:34:17;;;;;;;62.35;36.67;;;14.80;90.60;;;;;;5077323;28;20205;-70
2023/10/19 16:40:04;;;;;;;58.97;33.67;;;13.70;86.10;;;;;;5097748;28;20821;-71
2023/10/19 16:42:31;;;;;;;37.75;24.35;;;13.30;92.70;;;;;;5091227;28;20319;-71
2023/10/19 16:44:58;;;;;;;43.92;26.35;;;13.60;90.60;;;;;;5095036;28;20028;-71
2023/10/19 16:47:24;;;;;;;48.55;28.58;;;13.50;88.10;;;;;;5092724;28;20025;-71
2023/10/19 16:49:51;;;;;;;47.35;29.40;;;;;;;;;;5096931;28;20013;-71
2023/10/19 16:52:17;;;;;;;51.03;29.38;;;13.40;88.70;;;;;;5078978;28;20024;-71
2023/10/19 16:54:44;;;;;;;42.35;27.90;;;13.20;94.00;;;;;;5094165;28;20017;-71
2023/10/19 16:57:11;;;;;;;50.75;28.38;;;13.50;91.80;;;;;;5092883;28;20063;-71
2023/10/19 16:59:37;;;;;;;43.38;27.50;;;13.30;90.00;;;;;;5082421;28;20403;-71
2023/10/19 17:02:04;;;;;;;47.10;27.02;;;13.20;94.40;;;;;;5090750;28;20026;-71
2023/10/19 17:04:31;;;;;;;48.25;27.75;;;13.60;94.50;;;;;;5083503;28;20301;-71
2023/10/19 17:06:57;;;;;;;38.38;23.42;;;13.30;94.60;;;;;;5080930;28;20028;-72
2023/10/19 17:09:24;;;;;;;36.72;22.55;;;13.50;91.60;;;;;;5096873;28;20350;-72
2023/10/19 17:11:52;;;;;;;38.97;24.45;;;13.40;93.60;;;;;;5089758;28;20032;-71
2023/10/19 17:14:19;;;;;;;36.35;22.02;;;13.40;92.00;;;;;;5091513;28;20038;-72
2023/10/19 17:16:47;;;;;;;45.28;23.63;;;;;;;;;;5092205;28;20096;-71
2023/10/19 17:19:13;;;;;;;42.92;23.20;;;;;;;;;;5085854;28;20040;-71
2023/10/19 17:21:40;;;;;;;36.03;22.83;;;13.60;93.70;;;;;;5096897;28;20028;-72
2023/10/19 17:24:07;;;;;;;38.53;23.02;;;13.70;90.70;;;;;;5079377;28;20029;-72
2023/10/19 17:26:34;;;;;;;36.35;22.48;;;13.70;92.50;;;;;;5076702;28;20031;-72
2023/10/19 17:29:02;;;;;;;35.95;21.98;;;13.80;95.10;;;;;;5076469;28;20244;-72
2023/10/19 17:31:28;;;;;;;33.05;20.95;;;13.60;92.80;;;;;;5075037;28;20028;-72
2023/10/19 17:33:55;;;;;;;27.90;16.75;;;13.60;91.70;;;;;;5067979;28;20057;-72
2023/10/19 17:36:21;;;;;;;34.35;20.42;;;;;;;;;;5058368;28;20021;-73
2023/10/19 17:38:48;;;;;;;32.13;18.90;;;;;;;;;;5056534;28;20348;-72
2023/10/19 17:41:18;;;;;;;37.13;22.27;;;13.80;91.60;;;;;;5056480;28;20039;-72
2023/10/19 17:43:46;;;;;;;37.83;23.17;;;13.90;91.00;;;;;;5063948;28;20441;-72
2023/10/19 17:46:14;;;;;;;29.38;18.98;;;13.90;91.00;;;;;;5068300;28;20208;-72
2023/10/19 17:48:42;;;;;;;34.85;22.10;;;13.90;95.30;;;;;;5075177;28;20021;-72
2023/10/19 17:51:14;;;;;;;31.63;19.90;;;14.00;91.10;;;;;;5062928;28;20092;-73
2023/10/19 17:53:41;;;;;;;29.00;17.95;;;14.10;95.50;;;;;;5061944;28;20032;-72
2023/10/19 17:56:08;;;;;;;32.95;16.95;;;14.10;92.80;;;;;;5061869;28;20279;-72
2023/10/19 17:58:35;;;;;;;22.48;15.38;;;14.40;91.60;;;;;;5063199;28;20040;-72
2023/10/19 18:01:09;;;;;;;24.63;16.90;;;14.60;95.40;;;;;;5062810;28;20305;-73
2023/10/19 18:03:38;;;;;;;26.33;17.15;;;14.70;95.00;;;;;;5061616;28;20122;-72
2023/10/19 18:06:07;;;;;;;26.13;17.70;;;14.30;90.50;;;;;;5062640;28;20053;-72
2023/10/19 18:08:35;;;;;;;29.35;16.02;;;14.90;95.20;;;;;;5062439;28;20025;-72
2023/10/19 18:11:02;;;;;;;24.08;13.55;;;14.80;90.70;;;;;;5062536;28;20017;-71
2023/10/19 18:13:28;;;;;;;32.10;17.70;;;14.80;94.90;;;;;;5063257;28;20044;-71
2023/10/19 18:15:54;;;;;;;25.85;14.57;;;;;;;;;;5061437;28;20033;-73
2023/10/19 18:18:21;;;;;;;21.65;14.13;;;15.10;94.40;;;;;;5062259;28;20052;-72
2023/10/19 18:20:47;;;;;;;32.90;21.88;;;;;;;;;;5062353;28;20021;-72
2023/10/19 18:23:14;;;;;;;25.40;15.35;;;15.00;90.40;;;;;;5062020;28;20088;-72
2023/10/19 18:25:42;;;;;;;27.33;18.20;;;15.10;89.60;;;;;;5060784;28;20124;-72
2023/10/19 18:28:08;;;;;;;27.02;17.48;;;;;;;;;;5062059;28;20017;-72
2023/10/19 18:30:35;;;;;;;22.30;12.10;;;;;;;;;;5061964;28;20396;-72
2023/10/19 18:33:02;;;;;;;20.52;12.50;;;15.10;92.00;;;;;;5061952;28;20182;-72
2023/10/19 18:35:30;;;;;;;38.53;23.15;;;15.30;88.90;;;;;;5061895;28;20015;-73
2023/10/19 18:37:56;;;;;;;43.60;25.20;;;;;;;;;;5061610;28;20090;-72
2023/10/19 18:40:23;;;;;;;39.13;22.77;;;14.80;88.70;;;;;;5061847;28;20051;-72
2023/10/19 18:42:50;;;;;;;35.03;21.27;;;14.80;88.90;;;;;;5047523;28;20036;-72
2023/10/19 18:45:18;;;;;;;36.35;21.23;;;14.80;89.40;;;;;;5055502;28;20043;-72
2023/10/19 18:47:44;;;;;;;37.75;22.30;;;;;;;;;;5061473;28;20034;-71
2023/10/19 18:50:13;;;;;;;68.28;30.45;;;14.70;90.30;;;;;;5047034;28;20025;-72
2023/10/19 18:52:39;;;;;;;40.45;22.33;;;;;;;;;;5040198;28;20025;-72
2023/10/19 18:55:05;;;;;;;34.78;22.30;;;;;;;;;;5041528;28;20084;-72
2023/10/19 18:57:31;;;;;;;21.02;13.75;;;;;;;;;;5041267;28;20020;-73
2023/10/19 18:59:57;;;;;;;37.35;20.45;;;;;;;;;;5041315;28;20033;-72
2023/10/19 19:02:24;;;;;;;31.30;13.77;;;14.80;95.20;;;;;;5054612;28;20040;-73
2023/10/19 19:04:50;;;;;;;21.02;13.55;;;;;;;;;;5061267;28;20024;-73
2023/10/19 19:07:17;;;;;;;22.25;13.25;;;;;;;;;;5061479;28;20055;-72
2023/10/19 19:09:43;;;;;;;21.50;12.05;;;15.40;94.70;;;;;;5061416;28;20055;-72
2023/10/19 19:12:13;;;;;;;25.30;13.77;;;15.70;90.30;;;;;;5061396;28;20021;-71
2023/10/19 19:14:45;;;;;;;21.13;11.88;;;15.80;90.10;;;;;;5061278;28;20036;-73
2023/10/19 19:17:12;;;;;;;24.13;14.98;;;16.30;93.90;;;;;;5061246;28;20021;-73
2023/10/19 19:19:38;;;;;;;19.45;12.15;;;15.90;93.50;;;;;;5059920;28;20247;-75
2023/10/19 19:22:04;;;;;;;56.88;22.88;;;16.20;93.50;;;;;;5061224;28;20328;-73
2023/10/19 19:24:30;;;;;;;34.80;16.27;;;16.20;92.70;;;;;;5061585;28;20031;-73
2023/10/19 19:26:57;;;;;;;67.50;26.70;;;16.10;88.20;;;;;;5060817;28;20071;-73
2023/10/19 19:29:24;;;;;;;30.20;13.32;;;16.30;92.70;;;;;;5061274;28;20070;-73
2023/10/19 19:31:51;;;;;;;38.42;23.33;;;16.10;90.50;;;;;;5061137;28;20013;-73
2023/10/19 19:34:17;;;;;;;39.08;23.60;;;;;;;;;;5060996;28;20025;-73
2023/10/19 19:36:44;;;;;;;42.83;25.13;;;15.10;92.30;;;;;;5060980;28;20020;-73
2023/10/19 19:39:17;;;;;;;42.83;27.00;;;;;;;;;;5043767;28;20344;-73
2023/10/19 19:41:43;;;;;;;41.72;28.00;;;14.60;92.80;;;;;;5041162;28;20017;-72
2023/10/19 19:44:09;;;;;;;46.97;27.15;;;;;;;;;;5040782;28;20024;-73
2023/10/19 19:46:35;;;;;;;42.50;25.83;;;14.30;93.80;;;;;;5054728;28;20042;-73
2023/10/19 19:49:02;;;;;;;38.88;24.40;;;;;;;;;;5052595;28;20312;-73
2023/10/19 19:51:31;;;;;;;39.42;24.83;;;;;;;;;;5053892;28;20062;-73
2023/10/19 19:53:57;;;;;;;42.97;26.05;;;13.90;91.60;;;;;;5046708;28;20071;-72
2023/10/19 19:56:23;;;;;;;44.13;25.52;;;;;;;;;;5049590;28;20017;-72
2023/10/19 19:58:49;;;;;;;42.90;26.45;;;;;;;;;;5046188;28;20044;-72
2023/10/19 20:01:17;;;;;;;41.40;25.45;;;13.60;91.10;;;;;;5053058;28;20339;-73
2023/10/19 20:03:43;;;;;;;47.05;25.33;;;13.60;92.20;;;;;;5055163;28;20017;-73
2023/10/19 20:06:12;;;;;;;41.13;23.55;;;;;;;;;;5046405;28;20032;-73
2023/10/19 20:08:39;;;;;;;;;;;13.50;92.60;;;;;;5053337;28;20091;-72
2023/10/19 20:11:06;;;;;;;52.28;28.20;;;;;;;;;;5060391;28;19905;-72
2023/10/19 20:13:32;;;;;;;39.72;23.67;;;;;;;;;;5053661;28;20033;-72
2023/10/19 20:15:58;;;;;;;38.97;23.63;;;13.60;94.70;;;;;;5056602;28;20036;-73
2023/10/19 20:18:24;;;;;;;45.75;24.80;;;;;;;;;;5052221;28;20319;-72
2023/10/19 20:20:50;;;;;;;40.83;24.50;;;;;;;;;;5050329;28;20028;-72
2023/10/19 20:23:20;;;;;;;35.35;21.15;;;13.70;96.40;;;;;;5056129;28;20017;-72
2023/10/19 20:25:46;;;;;;;39.00;25.40;;;;;;;;;;5049032;28;20021;-72
2023/10/19 20:28:13;;;;;;;41.15;23.80;;;;;;;;;;5044085;28;20121;-72
2023/10/19 20:30:39;;;;;;;41.03;23.73;;;;;;;;;;5042219;28;20084;-72
2023/10/19 20:33:06;;;;;;;35.30;19.73;;;13.70;98.20;;;;;;5041516;28;20124;-71
2023/10/19 20:35:33;;;;;;;30.10;19.52;;;13.80;93.20;;;;;;5048936;28;20214;-72
2023/10/19 20:37:59;;;;;;;29.45;15.57;;;13.90;94.90;;;;;;5055785;28;20340;-71
2023/10/19 20:40:30;;;;;;;41.30;20.80;;;13.80;97.40;;;;;;5060231;28;20013;-73
2023/10/19 20:42:58;;;;;;;32.47;17.05;;;14.00;97.20;;;;;;5048286;28;20225;-72
2023/10/19 20:45:25;;;;;;;25.40;16.27;;;14.30;97.40;;;;;;5040720;28;20017;-71
2023/10/19 20:47:53;;;;;;;16.25;9.68;;;14.30;97.80;;;;;;5057182;28;20092;-70
2023/10/19 20:50:22;;;;;;;19.52;11.15;;;14.70;94.80;;;;;;5040542;28;20048;-73
2023/10/19 20:52:52;;;;;;;23.80;8.95;;;15.00;93.20;;;;;;5048031;28;20337;-72
2023/10/19 20:55:18;;;;;;;16.35;10.13;;;15.30;92.70;;;;;;5049038;28;20029;-73
2023/10/19 20:57:45;;;;;;;13.75;8.15;;;;;;;;;;5046912;28;20033;-77
2023/10/19 21:00:12;;;;;;;15.07;7.57;;;15.80;92.00;;;;;;5051004;28;20021;-74
2023/10/19 21:02:39;;;;;;;12.63;6.95;;;16.10;91.30;;;;;;5055147;28;20084;-75
2023/10/19 21:05:06;;;;;;;13.40;6.55;;;16.30;94.70;;;;;;5059219;28;20387;-83
2023/10/19 21:07:32;;;;;;;16.90;7.70;;;16.50;94.30;;;;;;5059888;28;20331;-75
2023/10/19 21:09:58;;;;;;;10.60;6.53;;;;;;;;;;5056826;28;20022;-72
2023/10/19 21:12:27;;;;;;;13.63;6.65;;;;;;;;;;5049288;28;20052;-73
2023/10/19 21:14:53;;;;;;;11.88;5.53;;;;;;;;;;5050542;28;20032;-74
2023/10/19 21:17:20;;;;;;;13.77;7.03;;;;;;;;;;5043056;28;20024;-73
2023/10/19 21:19:45;;;;;;;11.82;6.88;;;17.20;92.40;;;;;;5058269;28;20079;-72
2023/10/19 21:22:12;;;;;;;13.85;6.78;;;17.20;90.20;;;;;;5059444;28;20488;-71
2023/10/19 21:24:38;;;;;;;18.50;6.75;;;;;;;;;;5058332;28;20013;-72
2023/10/19 21:27:04;;;;;;;16.05;6.30;;;;;;;;;;5053924;28;20017;-73
2023/10/19 21:29:30;;;;;;;13.50;6.03;;;17.50;91.20;;;;;;5060424;28;20201;-72
2023/10/19 21:31:56;;;;;;;13.00;6.22;;;17.40;91.10;;;;;;5056104;28;20032;-72
2023/10/19 21:34:21;;;;;;;16.48;6.57;;;17.40;89.30;;;;;;5044017;28;20200;-72
2023/10/19 21:36:47;;;;;;;13.45;5.80;;;17.50;90.90;;;;;;5052397;28;20013;-71
2023/10/19 21:39:13;;;;;;;9.57;6.40;;;;;;;;;;5048684;28;20048;-72
2023/10/19 21:41:41;;;;;;;10.00;5.60;;;;;;;;;;5047779;28;20391;-72
2023/10/19 21:44:07;;;;;;;13.40;5.78;;;;;;;;;;5050245;28;20250;-72
2023/10/19 21:46:33;;;;;;;19.92;6.45;;;;;;;;;;5045849;28;20021;-72
2023/10/19 21:48:59;;;;;;;12.27;5.55;;;;;;;;;;5043319;28;20116;-70
2023/10/19 21:51:26;;;;;;;11.15;6.35;;;17.60;90.40;;;;;;5042724;28;20017;-70
2023/10/19 21:53:52;;;;;;;12.30;5.18;;;17.60;90.30;;;;;;5058189;28;20026;-69
2023/10/19 21:56:18;;;;;;;15.65;5.43;;;;;;;;;;5050377;28;20039;-70